sensor_id;sensor_type;location;lat;lon;timestamp;temperature;humidity
30379;DHT22;17168;49.164;9.060;2022-11-15T00:01:34;17.20;76.50
30379;DHT22;17168;49.164;9.060;2022-11-15T00:04:06;17.20;76.30
30379;DHT22;17168;49.164;9.060;2022-11-15T00:06:39;17.20;76.20
30379;DHT22;17168;49.164;9.060;2022-11-15T00:09:11;17.20;75.90
30379;DHT22;17168;49.164;9.060;2022-11-15T00:11:43;17.30;76.10
30379;DHT22;17168;49.164;9.060;2022-11-15T00:14:15;17.30;75.80
30379;DHT22;17168;49.164;9.060;2022-11-15T00:16:47;17.20;75.70
30379;DHT22;17168;49.164;9.060;2022-11-15T00:19:18;17.30;75.40
30379;DHT22;17168;49.164;9.060;2022-11-15T00:21:52;17.30;75.00
30379;DHT22;17168;49.164;9.060;2022-11-15T00:24:23;17.30;74.50
30379;DHT22;17168;49.164;9.060;2022-11-15T00:26:55;17.30;74.50
30379;DHT22;17168;49.164;9.060;2022-11-15T00:29:27;17.30;74.40
30379;DHT22;17168;49.164;9.060;2022-11-15T00:31:59;17.30;74.50
30379;DHT22;17168;49.164;9.060;2022-11-15T00:34:31;17.20;74.40
30379;DHT22;17168;49.164;9.060;2022-11-15T00:37:05;17.30;74.20
30379;DHT22;17168;49.164;9.060;2022-11-15T00:39:37;17.30;74.00
30379;DHT22;17168;49.164;9.060;2022-11-15T00:42:09;17.30;73.80
30379;DHT22;17168;49.164;9.060;2022-11-15T00:44:41;17.30;73.50
30379;DHT22;17168;49.164;9.060;2022-11-15T00:47:13;17.20;73.10
30379;DHT22;17168;49.164;9.060;2022-11-15T00:49:44;17.20;72.90
30379;DHT22;17168;49.164;9.060;2022-11-15T00:52:18;17.20;72.80
30379;DHT22;17168;49.164;9.060;2022-11-15T00:54:50;17.20;72.60
30379;DHT22;17168;49.164;9.060;2022-11-15T00:57:21;17.20;72.70
30379;DHT22;17168;49.164;9.060;2022-11-15T00:59:53;17.20;72.40
30379;DHT22;17168;49.164;9.060;2022-11-15T01:02:25;17.10;71.60
30379;DHT22;17168;49.164;9.060;2022-11-15T01:04:57;16.80;71.20
30379;DHT22;17168;49.164;9.060;2022-11-15T01:07:30;16.50;71.10
30379;DHT22;17168;49.164;9.060;2022-11-15T01:10:02;16.20;71.20
30379;DHT22;17168;49.164;9.060;2022-11-15T01:12:34;15.90;71.40
30379;DHT22;17168;49.164;9.060;2022-11-15T01:15:07;15.50;71.90
30379;DHT22;17168;49.164;9.060;2022-11-15T01:17:39;15.20;72.50
30379;DHT22;17168;49.164;9.060;2022-11-15T01:20:11;14.90;72.90
30379;DHT22;17168;49.164;9.060;2022-11-15T01:22:45;14.70;73.40
30379;DHT22;17168;49.164;9.060;2022-11-15T01:25:16;14.40;73.80
30379;DHT22;17168;49.164;9.060;2022-11-15T01:27:48;14.20;74.10
30379;DHT22;17168;49.164;9.060;2022-11-15T01:30:20;14.00;74.40
30379;DHT22;17168;49.164;9.060;2022-11-15T01:32:52;13.80;74.80
30379;DHT22;17168;49.164;9.060;2022-11-15T01:35:24;13.60;75.20
30379;DHT22;17168;49.164;9.060;2022-11-15T01:37:57;13.40;75.60
30379;DHT22;17168;49.164;9.060;2022-11-15T01:40:29;13.30;76.00
30379;DHT22;17168;49.164;9.060;2022-11-15T01:43:19;13.10;76.50
30379;DHT22;17168;49.164;9.060;2022-11-15T01:45:53;12.90;77.50
30379;DHT22;17168;49.164;9.060;2022-11-15T01:48:29;12.80;77.70
30379;DHT22;17168;49.164;9.060;2022-11-15T01:51:06;12.60;77.80
30379;DHT22;17168;49.164;9.060;2022-11-15T01:53:42;12.50;77.90
30379;DHT22;17168;49.164;9.060;2022-11-15T01:56:18;12.30;78.10
30379;DHT22;17168;49.164;9.060;2022-11-15T01:58:53;12.20;78.40
30379;DHT22;17168;49.164;9.060;2022-11-15T02:01:28;12.10;78.90
30379;DHT22;17168;49.164;9.060;2022-11-15T02:04:05;12.00;79.30
30379;DHT22;17168;49.164;9.060;2022-11-15T02:06:40;11.90;79.40
30379;DHT22;17168;49.164;9.060;2022-11-15T02:09:14;11.80;79.50
30379;DHT22;17168;49.164;9.060;2022-11-15T02:11:45;11.70;79.70
30379;DHT22;17168;49.164;9.060;2022-11-15T02:14:19;11.60;79.60
30379;DHT22;17168;49.164;9.060;2022-11-15T02:16:57;11.50;79.80
30379;DHT22;17168;49.164;9.060;2022-11-15T02:19:48;11.50;80.20
30379;DHT22;17168;49.164;9.060;2022-11-15T02:22:32;11.40;80.50
30379;DHT22;17168;49.164;9.060;2022-11-15T02:25:23;11.30;80.90
30379;DHT22;17168;49.164;9.060;2022-11-15T02:28:21;11.20;81.50
30379;DHT22;17168;49.164;9.060;2022-11-15T02:31:04;11.10;81.90
30379;DHT22;17168;49.164;9.060;2022-11-15T02:33:42;11.00;82.10
30379;DHT22;17168;49.164;9.060;2022-11-15T02:36:23;11.00;82.40
30379;DHT22;17168;49.164;9.060;2022-11-15T02:38:59;10.90;82.80
30379;DHT22;17168;49.164;9.060;2022-11-15T02:41:38;10.80;83.00
30379;DHT22;17168;49.164;9.060;2022-11-15T02:44:12;10.80;83.30
30379;DHT22;17168;49.164;9.060;2022-11-15T02:46:47;10.80;83.50
30379;DHT22;17168;49.164;9.060;2022-11-15T02:49:39;10.70;83.70
30379;DHT22;17168;49.164;9.060;2022-11-15T02:52:14;10.60;83.80
30379;DHT22;17168;49.164;9.060;2022-11-15T02:54:52;10.60;84.00
30379;DHT22;17168;49.164;9.060;2022-11-15T02:57:27;10.50;84.20
30379;DHT22;17168;49.164;9.060;2022-11-15T03:00:03;10.50;84.60
30379;DHT22;17168;49.164;9.060;2022-11-15T03:02:39;10.50;85.00
30379;DHT22;17168;49.164;9.060;2022-11-15T03:05:15;10.50;85.40
30379;DHT22;17168;49.164;9.060;2022-11-15T03:07:51;10.40;85.80
30379;DHT22;17168;49.164;9.060;2022-11-15T03:10:32;10.40;86.20
30379;DHT22;17168;49.164;9.060;2022-11-15T03:13:09;10.40;86.70
30379;DHT22;17168;49.164;9.060;2022-11-15T03:15:45;10.40;87.10
30379;DHT22;17168;49.164;9.060;2022-11-15T03:18:23;10.40;87.60
30379;DHT22;17168;49.164;9.060;2022-11-15T03:21:00;10.40;87.90
30379;DHT22;17168;49.164;9.060;2022-11-15T03:23:32;10.30;88.20
30379;DHT22;17168;49.164;9.060;2022-11-15T03:26:07;10.30;88.50
30379;DHT22;17168;49.164;9.060;2022-11-15T03:28:40;10.30;88.80
30379;DHT22;17168;49.164;9.060;2022-11-15T03:31:14;10.30;89.20
30379;DHT22;17168;49.164;9.060;2022-11-15T03:34:07;10.30;89.90
30379;DHT22;17168;49.164;9.060;2022-11-15T03:36:41;10.20;90.20
30379;DHT22;17168;49.164;9.060;2022-11-15T03:39:14;10.20;90.60
30379;DHT22;17168;49.164;9.060;2022-11-15T03:41:59;10.20;90.90
30379;DHT22;17168;49.164;9.060;2022-11-15T03:44:39;10.20;91.30
30379;DHT22;17168;49.164;9.060;2022-11-15T03:47:17;10.20;91.50
30379;DHT22;17168;49.164;9.060;2022-11-15T03:49:57;10.20;91.60
30379;DHT22;17168;49.164;9.060;2022-11-15T03:52:32;10.30;91.70
30379;DHT22;17168;49.164;9.060;2022-11-15T03:55:07;10.30;91.80
30379;DHT22;17168;49.164;9.060;2022-11-15T03:57:39;10.30;92.00
30379;DHT22;17168;49.164;9.060;2022-11-15T04:00:12;10.30;92.10
30379;DHT22;17168;49.164;9.060;2022-11-15T04:02:44;10.30;92.30
30379;DHT22;17168;49.164;9.060;2022-11-15T04:05:17;10.30;92.40
30379;DHT22;17168;49.164;9.060;2022-11-15T04:07:49;10.30;92.60
30379;DHT22;17168;49.164;9.060;2022-11-15T04:10:21;10.30;92.40
30379;DHT22;17168;49.164;9.060;2022-11-15T04:12:53;10.30;92.60
30379;DHT22;17168;49.164;9.060;2022-11-15T04:15:24;10.30;92.80
30379;DHT22;17168;49.164;9.060;2022-11-15T04:17:57;10.40;93.00
30379;DHT22;17168;49.164;9.060;2022-11-15T04:20:31;10.40;93.20
30379;DHT22;17168;49.164;9.060;2022-11-15T04:23:22;10.40;93.40
30379;DHT22;17168;49.164;9.060;2022-11-15T04:26:15;10.40;93.40
30379;DHT22;17168;49.164;9.060;2022-11-15T04:28:48;10.40;93.60
30379;DHT22;17168;49.164;9.060;2022-11-15T04:31:38;10.50;93.70
30379;DHT22;17168;49.164;9.060;2022-11-15T04:34:10;10.50;93.90
30379;DHT22;17168;49.164;9.060;2022-11-15T04:36:43;10.50;94.00
30379;DHT22;17168;49.164;9.060;2022-11-15T04:39:33;10.50;94.20
30379;DHT22;17168;49.164;9.060;2022-11-15T04:42:05;10.50;94.30
30379;DHT22;17168;49.164;9.060;2022-11-15T04:44:37;10.60;94.50
30379;DHT22;17168;49.164;9.060;2022-11-15T04:47:08;10.60;94.60
30379;DHT22;17168;49.164;9.060;2022-11-15T04:49:40;10.60;94.70
30379;DHT22;17168;49.164;9.060;2022-11-15T04:52:14;10.60;94.90
30379;DHT22;17168;49.164;9.060;2022-11-15T04:54:46;10.60;95.00
30379;DHT22;17168;49.164;9.060;2022-11-15T04:57:18;10.60;95.00
30379;DHT22;17168;49.164;9.060;2022-11-15T04:59:49;10.70;95.20
30379;DHT22;17168;49.164;9.060;2022-11-15T05:02:21;10.70;95.30
30379;DHT22;17168;49.164;9.060;2022-11-15T05:04:53;10.70;95.30
30379;DHT22;17168;49.164;9.060;2022-11-15T05:07:26;10.70;95.50
30379;DHT22;17168;49.164;9.060;2022-11-15T05:09:58;10.70;95.60
30379;DHT22;17168;49.164;9.060;2022-11-15T05:12:30;10.70;95.70
30379;DHT22;17168;49.164;9.060;2022-11-15T05:15:02;10.70;95.70
30379;DHT22;17168;49.164;9.060;2022-11-15T05:17:34;10.70;95.80
30379;DHT22;17168;49.164;9.060;2022-11-15T05:20:07;10.70;95.80
30379;DHT22;17168;49.164;9.060;2022-11-15T05:22:40;10.70;95.80
30379;DHT22;17168;49.164;9.060;2022-11-15T05:25:12;10.70;95.90
30379;DHT22;17168;49.164;9.060;2022-11-15T05:27:44;10.70;96.00
30379;DHT22;17168;49.164;9.060;2022-11-15T05:30:16;10.60;96.10
30379;DHT22;17168;49.164;9.060;2022-11-15T05:32:48;10.60;96.10
30379;DHT22;17168;49.164;9.060;2022-11-15T05:35:30;10.60;96.40
30379;DHT22;17168;49.164;9.060;2022-11-15T05:38:04;10.60;96.50
30379;DHT22;17168;49.164;9.060;2022-11-15T05:40:36;10.60;96.60
30379;DHT22;17168;49.164;9.060;2022-11-15T05:43:08;10.60;96.70
30379;DHT22;17168;49.164;9.060;2022-11-15T05:45:41;10.60;96.70
30379;DHT22;17168;49.164;9.060;2022-11-15T05:48:13;10.60;96.60
30379;DHT22;17168;49.164;9.060;2022-11-15T05:50:46;10.60;96.50
30379;DHT22;17168;49.164;9.060;2022-11-15T05:53:21;10.60;96.30
30379;DHT22;17168;49.164;9.060;2022-11-15T05:55:54;10.60;96.30
30379;DHT22;17168;49.164;9.060;2022-11-15T05:58:26;10.60;96.30
30379;DHT22;17168;49.164;9.060;2022-11-15T06:00:59;10.60;96.30
30379;DHT22;17168;49.164;9.060;2022-11-15T06:03:31;10.60;96.20
30379;DHT22;17168;49.164;9.060;2022-11-15T06:06:04;10.60;96.30
30379;DHT22;17168;49.164;9.060;2022-11-15T06:08:37;10.50;96.40
30379;DHT22;17168;49.164;9.060;2022-11-15T06:11:09;10.50;96.50
30379;DHT22;17168;49.164;9.060;2022-11-15T06:13:41;10.50;96.40
30379;DHT22;17168;49.164;9.060;2022-11-15T06:16:12;10.50;96.40
30379;DHT22;17168;49.164;9.060;2022-11-15T06:18:44;10.50;96.30
30379;DHT22;17168;49.164;9.060;2022-11-15T06:21:16;10.50;96.30
30379;DHT22;17168;49.164;9.060;2022-11-15T06:23:49;10.50;96.30
30379;DHT22;17168;49.164;9.060;2022-11-15T06:26:20;10.50;96.30
30379;DHT22;17168;49.164;9.060;2022-11-15T06:28:52;10.50;96.30
30379;DHT22;17168;49.164;9.060;2022-11-15T06:31:24;10.40;96.20
30379;DHT22;17168;49.164;9.060;2022-11-15T06:33:55;10.40;96.20
30379;DHT22;17168;49.164;9.060;2022-11-15T06:36:27;10.40;96.20
30379;DHT22;17168;49.164;9.060;2022-11-15T06:39:00;10.40;96.30
30379;DHT22;17168;49.164;9.060;2022-11-15T06:41:33;10.40;96.40
30379;DHT22;17168;49.164;9.060;2022-11-15T06:44:05;10.40;96.60
30379;DHT22;17168;49.164;9.060;2022-11-15T06:46:37;10.40;97.00
30379;DHT22;17168;49.164;9.060;2022-11-15T06:49:08;10.40;97.10
30379;DHT22;17168;49.164;9.060;2022-11-15T06:51:40;10.40;97.20
30379;DHT22;17168;49.164;9.060;2022-11-15T06:54:13;10.40;97.20
30379;DHT22;17168;49.164;9.060;2022-11-15T06:56:45;10.40;97.20
30379;DHT22;17168;49.164;9.060;2022-11-15T06:59:16;10.40;97.10
30379;DHT22;17168;49.164;9.060;2022-11-15T07:01:48;10.40;97.10
30379;DHT22;17168;49.164;9.060;2022-11-15T07:04:20;10.40;97.00
30379;DHT22;17168;49.164;9.060;2022-11-15T07:06:52;10.40;96.90
30379;DHT22;17168;49.164;9.060;2022-11-15T07:09:25;10.40;96.90
30379;DHT22;17168;49.164;9.060;2022-11-15T07:11:57;10.40;96.90
30379;DHT22;17168;49.164;9.060;2022-11-15T07:14:35;10.40;96.80
30379;DHT22;17168;49.164;9.060;2022-11-15T07:17:06;10.40;96.90
30379;DHT22;17168;49.164;9.060;2022-11-15T07:19:38;10.40;97.10
30379;DHT22;17168;49.164;9.060;2022-11-15T07:22:10;10.40;97.20
30379;DHT22;17168;49.164;9.060;2022-11-15T07:24:42;10.40;97.30
30379;DHT22;17168;49.164;9.060;2022-11-15T07:27:14;10.40;97.30
30379;DHT22;17168;49.164;9.060;2022-11-15T07:29:46;10.40;97.30
30379;DHT22;17168;49.164;9.060;2022-11-15T07:32:18;10.40;97.40
30379;DHT22;17168;49.164;9.060;2022-11-15T07:34:49;10.40;97.50
30379;DHT22;17168;49.164;9.060;2022-11-15T07:37:21;10.40;97.60
30379;DHT22;17168;49.164;9.060;2022-11-15T07:39:54;10.50;97.80
30379;DHT22;17168;49.164;9.060;2022-11-15T07:42:25;10.50;97.90
30379;DHT22;17168;49.164;9.060;2022-11-15T07:45:16;10.50;97.90
30379;DHT22;17168;49.164;9.060;2022-11-15T07:47:48;10.60;98.10
30379;DHT22;17168;49.164;9.060;2022-11-15T07:50:20;10.60;98.20
30379;DHT22;17168;49.164;9.060;2022-11-15T07:52:54;10.60;98.30
30379;DHT22;17168;49.164;9.060;2022-11-15T07:55:28;10.70;98.40
30379;DHT22;17168;49.164;9.060;2022-11-15T07:58:01;10.70;98.50
30379;DHT22;17168;49.164;9.060;2022-11-15T08:00:34;10.70;98.60
30379;DHT22;17168;49.164;9.060;2022-11-15T08:03:08;10.80;98.70
30379;DHT22;17168;49.164;9.060;2022-11-15T08:05:41;10.80;98.80
30379;DHT22;17168;49.164;9.060;2022-11-15T08:08:13;10.90;98.90
30379;DHT22;17168;49.164;9.060;2022-11-15T08:10:46;10.90;99.10
30379;DHT22;17168;49.164;9.060;2022-11-15T08:13:18;11.00;99.30
30379;DHT22;17168;49.164;9.060;2022-11-15T08:15:50;11.00;99.40
30379;DHT22;17168;49.164;9.060;2022-11-15T08:18:28;11.10;99.50
30379;DHT22;17168;49.164;9.060;2022-11-15T08:21:00;11.10;99.70
30379;DHT22;17168;49.164;9.060;2022-11-15T08:23:32;11.20;99.90
30379;DHT22;17168;49.164;9.060;2022-11-15T08:26:06;11.20;99.90
30379;DHT22;17168;49.164;9.060;2022-11-15T08:28:38;11.30;99.90
30379;DHT22;17168;49.164;9.060;2022-11-15T08:31:13;11.30;99.90
30379;DHT22;17168;49.164;9.060;2022-11-15T08:33:45;11.40;99.90
30379;DHT22;17168;49.164;9.060;2022-11-15T08:36:17;11.40;99.90
30379;DHT22;17168;49.164;9.060;2022-11-15T08:38:49;11.50;99.90
30379;DHT22;17168;49.164;9.060;2022-11-15T08:41:25;11.60;99.90
30379;DHT22;17168;49.164;9.060;2022-11-15T08:43:58;11.60;99.90
30379;DHT22;17168;49.164;9.060;2022-11-15T08:46:30;11.70;99.90
30379;DHT22;17168;49.164;9.060;2022-11-15T08:49:02;11.70;99.90
30379;DHT22;17168;49.164;9.060;2022-11-15T08:51:34;11.80;99.90
30379;DHT22;17168;49.164;9.060;2022-11-15T08:54:05;11.90;99.90
30379;DHT22;17168;49.164;9.060;2022-11-15T08:56:39;11.90;99.90
30379;DHT22;17168;49.164;9.060;2022-11-15T08:59:11;12.00;99.90
30379;DHT22;17168;49.164;9.060;2022-11-15T09:01:42;12.20;99.90
30379;DHT22;17168;49.164;9.060;2022-11-15T09:04:14;12.10;99.90
30379;DHT22;17168;49.164;9.060;2022-11-15T09:06:46;12.20;99.90
30379;DHT22;17168;49.164;9.060;2022-11-15T09:09:18;12.30;99.90
30379;DHT22;17168;49.164;9.060;2022-11-15T09:11:51;12.30;99.90
30379;DHT22;17168;49.164;9.060;2022-11-15T09:14:28;12.40;99.90
30379;DHT22;17168;49.164;9.060;2022-11-15T09:17:00;12.50;99.90
30379;DHT22;17168;49.164;9.060;2022-11-15T09:19:32;12.50;99.90
30379;DHT22;17168;49.164;9.060;2022-11-15T09:22:06;12.60;99.90
30379;DHT22;17168;49.164;9.060;2022-11-15T09:24:38;12.70;99.90
30379;DHT22;17168;49.164;9.060;2022-11-15T09:27:11;12.70;99.90
30379;DHT22;17168;49.164;9.060;2022-11-15T09:29:44;13.10;99.90
30379;DHT22;17168;49.164;9.060;2022-11-15T09:32:15;12.90;99.90
30379;DHT22;17168;49.164;9.060;2022-11-15T09:34:47;13.00;99.90
30379;DHT22;17168;49.164;9.060;2022-11-15T09:37:19;13.00;99.90
30379;DHT22;17168;49.164;9.060;2022-11-15T09:39:51;13.10;99.90
30379;DHT22;17168;49.164;9.060;2022-11-15T09:42:38;13.20;99.90
30379;DHT22;17168;49.164;9.060;2022-11-15T09:45:20;13.30;99.90
30379;DHT22;17168;49.164;9.060;2022-11-15T09:48:17;13.40;99.90
30379;DHT22;17168;49.164;9.060;2022-11-15T09:50:54;13.50;99.90
30379;DHT22;17168;49.164;9.060;2022-11-15T09:53:34;13.50;99.90
30379;DHT22;17168;49.164;9.060;2022-11-15T09:56:30;13.70;99.90
30379;DHT22;17168;49.164;9.060;2022-11-15T09:59:18;13.70;99.90
30379;DHT22;17168;49.164;9.060;2022-11-15T10:01:59;13.80;99.90
30379;DHT22;17168;49.164;9.060;2022-11-15T10:04:32;13.80;99.90
30379;DHT22;17168;49.164;9.060;2022-11-15T10:07:20;13.90;99.90
30379;DHT22;17168;49.164;9.060;2022-11-15T10:09:58;14.00;99.90
30379;DHT22;17168;49.164;9.060;2022-11-15T10:12:33;14.00;99.90
30379;DHT22;17168;49.164;9.060;2022-11-15T10:15:15;14.10;99.90
30379;DHT22;17168;49.164;9.060;2022-11-15T10:18:06;14.10;99.90
30379;DHT22;17168;49.164;9.060;2022-11-15T10:20:46;14.20;99.90
30379;DHT22;17168;49.164;9.060;2022-11-15T10:23:19;14.20;99.90
30379;DHT22;17168;49.164;9.060;2022-11-15T10:25:53;14.30;99.90
30379;DHT22;17168;49.164;9.060;2022-11-15T10:28:27;14.30;99.70
30379;DHT22;17168;49.164;9.060;2022-11-15T10:31:02;14.30;99.50
30379;DHT22;17168;49.164;9.060;2022-11-15T10:33:35;14.30;99.20
30379;DHT22;17168;49.164;9.060;2022-11-15T10:36:18;14.40;99.10
30379;DHT22;17168;49.164;9.060;2022-11-15T10:38:52;14.40;98.90
30379;DHT22;17168;49.164;9.060;2022-11-15T10:41:37;14.40;98.90
30379;DHT22;17168;49.164;9.060;2022-11-15T10:44:24;14.40;98.80
30379;DHT22;17168;49.164;9.060;2022-11-15T10:53:22;14.50;98.70
30379;DHT22;17168;49.164;9.060;2022-11-15T10:55:57;14.50;98.50
30379;DHT22;17168;49.164;9.060;2022-11-15T10:58:35;14.50;98.40
30379;DHT22;17168;49.164;9.060;2022-11-15T11:01:18;14.50;98.10
30379;DHT22;17168;49.164;9.060;2022-11-15T11:03:57;14.50;98.00
30379;DHT22;17168;49.164;9.060;2022-11-15T11:06:31;14.50;98.30
30379;DHT22;17168;49.164;9.060;2022-11-15T11:09:27;14.60;98.10
30379;DHT22;17168;49.164;9.060;2022-11-15T11:12:01;14.50;98.00
30379;DHT22;17168;49.164;9.060;2022-11-15T11:14:38;14.60;98.00
30379;DHT22;17168;49.164;9.060;2022-11-15T11:17:16;14.60;97.90
30379;DHT22;17168;49.164;9.060;2022-11-15T11:19:59;14.60;97.80
30379;DHT22;17168;49.164;9.060;2022-11-15T11:22:37;14.60;97.60
30379;DHT22;17168;49.164;9.060;2022-11-15T11:25:23;14.70;97.60
30379;DHT22;17168;49.164;9.060;2022-11-15T11:28:09;14.70;97.50
30379;DHT22;17168;49.164;9.060;2022-11-15T11:30:53;14.70;97.40
30379;DHT22;17168;49.164;9.060;2022-11-15T11:33:31;14.70;97.30
30379;DHT22;17168;49.164;9.060;2022-11-15T11:36:14;14.70;97.20
30379;DHT22;17168;49.164;9.060;2022-11-15T11:39:02;14.80;97.30
30379;DHT22;17168;49.164;9.060;2022-11-15T11:41:47;14.80;97.40
30379;DHT22;17168;49.164;9.060;2022-11-15T11:44:33;14.80;97.40
30379;DHT22;17168;49.164;9.060;2022-11-15T11:47:09;14.90;97.50
30379;DHT22;17168;49.164;9.060;2022-11-15T11:49:46;14.90;97.40
30379;DHT22;17168;49.164;9.060;2022-11-15T11:52:25;15.00;97.60
30379;DHT22;17168;49.164;9.060;2022-11-15T11:55:02;15.20;97.80
30379;DHT22;17168;49.164;9.060;2022-11-15T11:57:44;15.30;97.80
30379;DHT22;17168;49.164;9.060;2022-11-15T12:00:19;15.40;97.50
30379;DHT22;17168;49.164;9.060;2022-11-15T12:03:03;15.50;97.20
30379;DHT22;17168;49.164;9.060;2022-11-15T12:05:40;15.50;96.80
30379;DHT22;17168;49.164;9.060;2022-11-15T12:08:24;15.60;96.50
30379;DHT22;17168;49.164;9.060;2022-11-15T12:11:03;15.70;96.30
30379;DHT22;17168;49.164;9.060;2022-11-15T12:13:38;15.70;96.20
30379;DHT22;17168;49.164;9.060;2022-11-15T12:16:14;15.80;96.10
30379;DHT22;17168;49.164;9.060;2022-11-15T12:18:50;15.80;95.90
30379;DHT22;17168;49.164;9.060;2022-11-15T12:21:31;15.80;95.70
30379;DHT22;17168;49.164;9.060;2022-11-15T12:24:11;15.90;95.50
30379;DHT22;17168;49.164;9.060;2022-11-15T12:26:49;15.90;95.30
30379;DHT22;17168;49.164;9.060;2022-11-15T12:29:27;16.00;95.20
30379;DHT22;17168;49.164;9.060;2022-11-15T12:32:04;16.00;94.90
30379;DHT22;17168;49.164;9.060;2022-11-15T12:34:43;16.00;94.70
30379;DHT22;17168;49.164;9.060;2022-11-15T12:37:50;16.00;94.50
30379;DHT22;17168;49.164;9.060;2022-11-15T12:41:11;15.90;94.30
30379;DHT22;17168;49.164;9.060;2022-11-15T12:43:39;15.90;94.40
30379;DHT22;17168;49.164;9.060;2022-11-15T12:46:19;15.90;94.20
30379;DHT22;17168;49.164;9.060;2022-11-15T12:48:55;15.90;94.20
30379;DHT22;17168;49.164;9.060;2022-11-15T12:54:56;15.90;94.10
30379;DHT22;17168;49.164;9.060;2022-11-15T12:57:36;15.90;94.10
30379;DHT22;17168;49.164;9.060;2022-11-15T13:03:22;15.80;94.20
30379;DHT22;17168;49.164;9.060;2022-11-15T13:08:56;15.70;94.10
30379;DHT22;17168;49.164;9.060;2022-11-15T13:11:48;15.80;94.10
30379;DHT22;17168;49.164;9.060;2022-11-15T13:14:46;15.80;94.00
30379;DHT22;17168;49.164;9.060;2022-11-15T13:17:29;15.80;93.90
30379;DHT22;17168;49.164;9.060;2022-11-15T13:20:30;15.80;94.10
30379;DHT22;17168;49.164;9.060;2022-11-15T13:23:08;15.70;93.90
30379;DHT22;17168;49.164;9.060;2022-11-15T13:25:55;15.70;93.90
30379;DHT22;17168;49.164;9.060;2022-11-15T13:28:32;15.70;93.90
30379;DHT22;17168;49.164;9.060;2022-11-15T13:31:27;15.70;93.90
30379;DHT22;17168;49.164;9.060;2022-11-15T13:34:03;15.70;93.90
30379;DHT22;17168;49.164;9.060;2022-11-15T13:36:56;15.70;94.00
30379;DHT22;17168;49.164;9.060;2022-11-15T13:39:30;15.80;94.10
30379;DHT22;17168;49.164;9.060;2022-11-15T13:42:03;15.80;94.10
30379;DHT22;17168;49.164;9.060;2022-11-15T13:44:37;15.80;94.10
30379;DHT22;17168;49.164;9.060;2022-11-15T13:47:13;15.80;94.00
30379;DHT22;17168;49.164;9.060;2022-11-15T13:49:48;15.90;93.90
30379;DHT22;17168;49.164;9.060;2022-11-15T13:52:22;15.90;93.80
30379;DHT22;17168;49.164;9.060;2022-11-15T13:54:58;15.90;93.60
30379;DHT22;17168;49.164;9.060;2022-11-15T13:57:38;15.90;93.50
30379;DHT22;17168;49.164;9.060;2022-11-15T14:00:32;15.90;93.40
30379;DHT22;17168;49.164;9.060;2022-11-15T14:03:15;15.80;93.30
30379;DHT22;17168;49.164;9.060;2022-11-15T14:06:00;15.90;93.30
30379;DHT22;17168;49.164;9.060;2022-11-15T14:08:36;15.80;93.40
30379;DHT22;17168;49.164;9.060;2022-11-15T14:11:13;15.90;93.50
30379;DHT22;17168;49.164;9.060;2022-11-15T14:14:04;15.80;93.50
30379;DHT22;17168;49.164;9.060;2022-11-15T14:16:38;15.80;93.50
30379;DHT22;17168;49.164;9.060;2022-11-15T14:19:12;15.80;93.50
30379;DHT22;17168;49.164;9.060;2022-11-15T14:22:13;15.80;93.50
30379;DHT22;17168;49.164;9.060;2022-11-15T14:25:05;15.80;93.40
30379;DHT22;17168;49.164;9.060;2022-11-15T14:27:38;15.80;93.40
30379;DHT22;17168;49.164;9.060;2022-11-15T14:30:14;15.70;93.40
30379;DHT22;17168;49.164;9.060;2022-11-15T14:32:48;15.80;93.40
30379;DHT22;17168;49.164;9.060;2022-11-15T14:35:22;15.80;93.50
30379;DHT22;17168;49.164;9.060;2022-11-15T14:37:54;15.80;93.50
30379;DHT22;17168;49.164;9.060;2022-11-15T14:40:27;15.70;93.40
30379;DHT22;17168;49.164;9.060;2022-11-15T14:43:01;15.70;93.30
30379;DHT22;17168;49.164;9.060;2022-11-15T14:45:32;15.70;93.30
30379;DHT22;17168;49.164;9.060;2022-11-15T14:48:04;15.70;93.20
30379;DHT22;17168;49.164;9.060;2022-11-15T14:50:37;15.70;93.20
30379;DHT22;17168;49.164;9.060;2022-11-15T14:53:12;15.70;93.20
30379;DHT22;17168;49.164;9.060;2022-11-15T14:55:47;15.70;93.20
30379;DHT22;17168;49.164;9.060;2022-11-15T14:58:19;15.70;93.20
30379;DHT22;17168;49.164;9.060;2022-11-15T15:00:51;15.70;93.30
30379;DHT22;17168;49.164;9.060;2022-11-15T15:03:23;15.60;93.20
30379;DHT22;17168;49.164;9.060;2022-11-15T15:05:55;15.60;93.30
30379;DHT22;17168;49.164;9.060;2022-11-15T15:08:27;15.60;93.30
30379;DHT22;17168;49.164;9.060;2022-11-15T15:11:01;15.60;93.30
30379;DHT22;17168;49.164;9.060;2022-11-15T15:13:33;15.60;93.30
30379;DHT22;17168;49.164;9.060;2022-11-15T15:16:05;15.50;93.30
30379;DHT22;17168;49.164;9.060;2022-11-15T15:18:37;15.50;93.40
30379;DHT22;17168;49.164;9.060;2022-11-15T15:21:19;15.50;93.50
30379;DHT22;17168;49.164;9.060;2022-11-15T15:23:54;15.50;93.60
30379;DHT22;17168;49.164;9.060;2022-11-15T15:26:28;15.40;93.70
30379;DHT22;17168;49.164;9.060;2022-11-15T15:29:00;15.30;93.70
30379;DHT22;17168;49.164;9.060;2022-11-15T15:31:32;15.20;93.80
30379;DHT22;17168;49.164;9.060;2022-11-15T15:34:04;15.10;93.90
30379;DHT22;17168;49.164;9.060;2022-11-15T15:36:36;15.10;94.10
30379;DHT22;17168;49.164;9.060;2022-11-15T15:39:08;15.10;94.10
30379;DHT22;17168;49.164;9.060;2022-11-15T15:41:43;15.10;94.10
30379;DHT22;17168;49.164;9.060;2022-11-15T15:44:15;15.10;94.10
30379;DHT22;17168;49.164;9.060;2022-11-15T15:46:46;15.10;94.00
30379;DHT22;17168;49.164;9.060;2022-11-15T15:49:18;15.10;94.00
30379;DHT22;17168;49.164;9.060;2022-11-15T15:51:50;15.10;93.90
30379;DHT22;17168;49.164;9.060;2022-11-15T15:54:22;15.10;93.80
30379;DHT22;17168;49.164;9.060;2022-11-15T15:56:55;15.10;93.70
30379;DHT22;17168;49.164;9.060;2022-11-15T15:59:27;15.00;93.60
30379;DHT22;17168;49.164;9.060;2022-11-15T16:01:59;15.00;93.60
30379;DHT22;17168;49.164;9.060;2022-11-15T16:04:31;15.00;93.50
30379;DHT22;17168;49.164;9.060;2022-11-15T16:07:16;15.00;93.40
30379;DHT22;17168;49.164;9.060;2022-11-15T16:09:49;15.00;93.30
30379;DHT22;17168;49.164;9.060;2022-11-15T16:12:34;15.00;93.30
30379;DHT22;17168;49.164;9.060;2022-11-15T16:15:07;15.00;93.30
30379;DHT22;17168;49.164;9.060;2022-11-15T16:17:42;15.00;93.30
30379;DHT22;17168;49.164;9.060;2022-11-15T16:20:32;15.00;93.30
30379;DHT22;17168;49.164;9.060;2022-11-15T16:23:06;15.00;93.30
30379;DHT22;17168;49.164;9.060;2022-11-15T16:25:44;15.00;93.20
30379;DHT22;17168;49.164;9.060;2022-11-15T16:28:20;14.90;93.20
30379;DHT22;17168;49.164;9.060;2022-11-15T16:31:00;15.00;93.20
30379;DHT22;17168;49.164;9.060;2022-11-15T16:33:32;14.90;93.10
30379;DHT22;17168;49.164;9.060;2022-11-15T16:36:12;15.00;93.10
30379;DHT22;17168;49.164;9.060;2022-11-15T16:38:44;14.90;93.00
30379;DHT22;17168;49.164;9.060;2022-11-15T16:41:16;14.90;93.00